Veuillez saisir l'adresse e-mail associée à votre compte d'utilisateur. Votre identifiant vous sera envoyé à cette adresse.

METAR TAF

[Source: ADDS]
METAR
LFCR 150600Z AUTO 13006KT 9999 FEW010 BKN029 01/00 Q0998 BECMG BKN009 =
AMD LFCR 150600Z 1506/1606 13005KT 9999 BKN030 BECMG 1506/1508 BKN009 BECMG 1509/1511 SCT015 BKN030 BECMG 1513/1515 22008KT PROB30 TEMPO 1516/1521 4000 -RA SCT008 BKN020 BECMG 1521/1523 BKN008 BECMG 1523/1601 28008KT PROB30 TEMPO 1601/1605 3000 -RA BKN003 LFBA 150600Z AUTO 10005KT 9000 FEW002 SCT064 BKN076 02/02 Q0998 TEMPO 3000 BR BKN002 =
LFBA 150500Z 1506/1515 12005KT 9999 BKN015 TEMPO 1506/1508 3000 BR BKN002 TEMPO 1508/1515 3000 RA BKN010 BECMG 1511/1513 03005KT LFSL 150600Z AUTO 18004KT 130V200 9999 OVC004 04/04 Q0998 TEMPO 3000 -DZ =
LFSL 150500Z 1506/1515 16005KT 9999 BKN012 BECMG 1506/1508 VRB02KT TEMPO 1506/1509 3000 -DZ BKN003 BECMG 1511/1513 SCT010 SCT035 LFLW 150530Z AUTO VRB02KT 9999 ////// 01/01 Q0997 =
LFLW 150500Z 1506/1515 16004KT 9999 BKN007 PROB40 TEMPO 1506/1509 3000 -RASN BKN004 BECMG 1509/1511 SCT018 PROB30 TEMPO 1512/1515 BKN025 BECMG 1512/1514 VRB02KT
TAF
AMD LFCR 150600Z 1506/1606 13005KT 9999 BKN030 BECMG 1506/1508 BKN009 BECMG 1509/1511 SCT015 BKN030 BECMG 1513/1515 22008KT PROB30 TEMPO 1516/1521 4000 -RA SCT008 BKN020 BECMG 1521/1523 BKN008 BECMG 1523/1601 28008KT PROB30 TEMPO 1601/1605 3000 -RA BKN003 =
LFBA 150500Z 1506/1515 12005KT 9999 BKN015 TEMPO 1506/1508 3000 BR BKN002 TEMPO 1508/1515 3000 RA BKN010 BECMG 1511/1513 03005KT =
LFSL 150500Z 1506/1515 16005KT 9999 BKN012 BECMG 1506/1508 VRB02KT TEMPO 1506/1509 3000 -DZ BKN003 BECMG 1511/1513 SCT010 SCT035 =
LFLW 150500Z 1506/1515 16004KT 9999 BKN007 PROB40 TEMPO 1506/1509 3000 -RASN BKN004 BECMG 1509/1511 SCT018 PROB30 TEMPO 1512/1515 BKN025 BECMG 1512/1514 VRB02KT =
SR / SS: 06:49 / 16:27 UTC (LFCC 2019-11-15)